Time;durP1;ratioP1;P1;durP2;ratioP2;P2;SDS_P1;SDS_P2;PMS_P1;PMS_P2;Temp;Humidity;BMP_temperature;BMP_pressure;BME280_temperature;BME280_humidity;BME280_pressure;Samples;Min_cycle;Max_cycle;Signal;HPM_P1;HPM_P2
2022/06/20 00:01:45;;;;;;;8.50;1.75;;;13.60;99.90;;;;;;5077908;28;20491;-55
2022/06/20 00:04:18;;;;;;;12.45;1.90;;;13.60;99.90;;;;;;5072498;28;20091;-52
2022/06/20 00:06:49;;;;;;;7.85;2.20;;;13.60;99.90;;;;;;5075389;28;20052;-50
2022/06/20 00:09:16;;;;;;;7.95;2.05;;;13.60;99.90;;;;;;5080083;28;20075;-61
2022/06/20 00:11:48;;;;;;;5.88;2.25;;;13.50;99.90;;;;;;5074192;28;20052;-55
2022/06/20 00:14:16;;;;;;;9.02;1.75;;;13.50;99.90;;;;;;5075423;28;20102;-53
2022/06/20 00:16:44;;;;;;;12.27;2.53;;;13.50;99.90;;;;;;5082534;28;20125;-57
2022/06/20 00:19:11;;;;;;;11.38;2.47;;;13.50;99.90;;;;;;5077290;28;20742;-55
2022/06/20 00:21:38;;;;;;;4.32;1.95;;;13.40;99.90;;;;;;5075066;28;20085;-54
2022/06/20 00:24:05;;;;;;;14.95;2.60;;;13.40;99.90;;;;;;5080779;28;20123;-54
2022/06/20 00:26:33;;;;;;;9.52;2.13;;;13.40;99.90;;;;;;5082202;28;20131;-54
2022/06/20 00:29:01;;;;;;;4.82;1.90;;;13.40;99.90;;;;;;5073482;28;20072;-55
2022/06/20 00:31:28;;;;;;;10.43;2.92;;;13.40;99.90;;;;;;5075553;28;20139;-56
2022/06/20 00:33:55;;;;;;;10.02;1.52;;;13.40;99.90;;;;;;5084416;28;20074;-55
2022/06/20 00:36:22;;;;;;;11.77;2.30;;;13.40;99.90;;;;;;5077994;28;20048;-56
2022/06/20 00:38:52;;;;;;;8.23;2.08;;;13.40;99.90;;;;;;5084000;28;20510;-54
2022/06/20 00:41:28;;;;;;;11.60;1.85;;;13.40;99.90;;;;;;5073301;28;20047;-56
2022/06/20 00:43:55;;;;;;;11.45;1.90;;;13.30;99.90;;;;;;5085641;28;20199;-55
2022/06/20 00:46:37;;;;;;;13.27;2.55;;;13.20;99.90;;;;;;5094612;28;20046;-57
2022/06/20 00:49:25;;;;;;;10.35;2.38;;;13.20;99.90;;;;;;5068656;28;20056;-57
2022/06/20 00:52:14;;;;;;;8.88;3.15;;;13.20;99.90;;;;;;5077923;28;20503;-56
2022/06/20 00:55:10;;;;;;;6.32;1.90;;;13.20;99.90;;;;;;5082616;28;20087;-57
2022/06/20 00:57:41;;;;;;;4.35;1.48;;;13.20;99.90;;;;;;5073624;28;20049;-55
2022/06/20 01:00:10;;;;;;;8.15;2.10;;;13.20;99.90;;;;;;5080755;28;20045;-56
2022/06/20 01:02:40;;;;;;;5.57;2.50;;;13.10;99.90;;;;;;5079755;28;20071;-57
2022/06/20 01:05:20;;;;;;;13.30;2.08;;;13.10;99.90;;;;;;5070838;28;20495;-57
2022/06/20 01:07:57;;;;;;;6.60;1.67;;;13.10;99.90;;;;;;5074142;28;20079;-57
2022/06/20 01:10:24;;;;;;;9.95;2.05;;;13.10;99.90;;;;;;5070598;28;20583;-52
2022/06/20 01:13:01;;;;;;;10.98;2.75;;;13.10;99.90;;;;;;4728853;28;10000043;-53
2022/06/20 01:15:39;;;;;;;12.07;2.17;;;13.00;99.90;;;;;;5068844;28;20082;-53
2022/06/20 01:18:13;;;;;;;10.55;1.67;;;13.00;99.90;;;;;;5074302;28;20586;-51
2022/06/20 01:20:40;;;;;;;;;;;13.00;99.90;;;;;;5072733;28;20327;-52
2022/06/20 01:23:17;;;;;;;14.10;2.90;;;13.00;99.90;;;;;;5084266;28;20008;-52
2022/06/20 01:25:53;;;;;;;11.50;2.33;;;13.10;99.90;;;;;;5071310;28;20079;-55
2022/06/20 01:28:22;;;;;;;13.10;3.38;;;13.00;99.90;;;;;;5075885;28;20048;-57
2022/06/20 01:30:49;;;;;;;6.82;2.08;;;13.10;99.90;;;;;;5083027;28;20534;-56
2022/06/20 01:33:18;;;;;;;7.72;2.33;;;13.00;99.90;;;;;;5075762;28;20044;-57
2022/06/20 01:38:31;;;;;;;12.75;2.53;;;13.00;99.90;;;;;;5068856;28;20126;-52
2022/06/20 01:43:43;;;;;;;12.40;2.38;;;12.90;99.90;;;;;;5075082;28;20143;-54
2022/06/20 01:46:10;;;;;;;4.05;1.52;;;12.90;99.90;;;;;;5072793;28;20044;-56
2022/06/20 01:48:39;;;;;;;6.68;2.10;;;12.80;99.90;;;;;;5076154;28;20052;-56
2022/06/20 01:51:08;;;;;;;6.50;1.65;;;12.80;99.90;;;;;;5085312;28;20433;-54
2022/06/20 01:53:35;;;;;;;10.07;2.03;;;12.80;99.90;;;;;;5069529;28;20115;-54
2022/06/20 01:56:04;;;;;;;12.68;2.28;;;12.80;99.90;;;;;;5081677;28;20080;-56
2022/06/20 01:58:35;;;;;;;13.07;2.25;;;12.80;99.90;;;;;;5076419;28;20135;-55
2022/06/20 02:01:02;;;;;;;10.50;2.20;;;12.80;99.90;;;;;;5106636;27;20101;-56
2022/06/20 02:03:30;;;;;;;9.93;1.95;;;12.90;99.90;;;;;;5065538;28;20094;-55
2022/06/20 02:05:57;;;;;;;8.05;1.98;;;12.90;99.90;;;;;;5071423;28;20052;-55
2022/06/20 02:08:24;;;;;;;9.15;2.20;;;13.00;99.90;;;;;;5079781;28;20139;-50
2022/06/20 02:11:05;;;;;;;5.63;2.03;;;13.00;99.90;;;;;;5062170;28;20418;-49
2022/06/20 02:13:34;;;;;;;8.20;2.42;;;13.10;99.90;;;;;;5085813;28;20059;-56
2022/06/20 02:16:05;;;;;;;9.82;2.53;;;13.00;99.90;;;;;;5081375;28;20501;-54
2022/06/20 02:18:33;;;;;;;11.82;1.90;;;13.10;99.90;;;;;;5073444;28;20574;-53
2022/06/20 02:21:02;;;;;;;4.22;1.48;;;13.10;99.90;;;;;;5065882;28;20052;-54
2022/06/20 02:23:31;;;;;;;8.20;1.65;;;13.10;99.90;;;;;;5074893;28;20127;-55
2022/06/20 02:25:57;;;;;;;11.18;2.70;;;13.10;99.90;;;;;;5079817;28;20076;-53
2022/06/20 02:28:35;;;;;;;6.47;2.63;;;13.10;99.90;;;;;;5075397;28;20097;-56
2022/06/20 02:31:02;;;;;;;10.80;3.00;;;13.10;99.90;;;;;;5069620;28;20119;-56
2022/06/20 02:33:29;;;;;;;7.30;1.77;;;13.20;99.90;;;;;;5082870;28;20471;-57
2022/06/20 02:35:57;;;;;;;9.50;3.00;;;13.20;99.90;;;;;;5072791;28;20393;-52
2022/06/20 02:38:23;;;;;;;15.77;2.78;;;13.20;99.90;;;;;;5081333;28;20079;-55
2022/06/20 02:40:50;;;;;;;13.50;1.90;;;13.20;99.90;;;;;;5074778;28;20091;-55
2022/06/20 02:43:30;;;;;;;8.80;2.33;;;13.20;99.90;;;;;;5082600;28;20568;-56
2022/06/20 02:45:57;;;;;;;8.88;1.88;;;13.20;99.90;;;;;;5070464;28;20127;-55
2022/06/20 02:48:25;;;;;;;8.75;1.92;;;13.20;99.90;;;;;;5082522;28;20335;-56
2022/06/20 02:50:54;;;;;;;8.63;1.95;;;13.20;99.90;;;;;;5059241;28;20051;-57
2022/06/20 02:53:44;;;;;;;3.90;1.48;;;13.20;99.90;;;;;;5065379;28;20127;-55
2022/06/20 02:56:13;;;;;;;11.18;2.97;;;13.20;99.90;;;;;;5084364;28;20048;-55
2022/06/20 02:58:41;;;;;;;12.60;3.08;;;13.20;99.90;;;;;;5070965;28;20546;-56
2022/06/20 03:01:23;;;;;;;8.10;1.92;;;13.20;99.90;;;;;;5070038;28;20488;-53
2022/06/20 03:03:51;;;;;;;8.75;2.10;;;13.20;99.90;;;;;;5084261;28;20439;-54
2022/06/20 03:06:45;;;;;;;9.30;1.70;;;13.20;99.90;;;;;;5081232;28;20048;-56
2022/06/20 03:09:13;;;;;;;12.15;2.25;;;13.20;99.90;;;;;;5101195;27;20071;-54
2022/06/20 03:11:40;;;;;;;9.70;2.78;;;13.10;99.90;;;;;;5070989;28;20656;-54
2022/06/20 03:14:10;;;;;;;8.90;1.70;;;13.10;99.90;;;;;;5073614;28;20087;-57
2022/06/20 03:16:39;;;;;;;12.60;1.83;;;13.00;99.90;;;;;;5079401;28;20098;-57
2022/06/20 03:19:09;;;;;;;9.68;1.13;;;13.00;99.90;;;;;;5085166;28;20048;-56
2022/06/20 03:21:37;;;;;;;9.40;1.50;;;12.90;99.90;;;;;;5058386;28;20076;-53
2022/06/20 03:24:05;;;;;;;19.25;2.92;;;12.90;99.90;;;;;;5084051;28;20044;-55
2022/06/20 03:26:31;;;;;;;6.82;1.20;;;12.80;99.90;;;;;;5073309;28;20044;-56
2022/06/20 03:28:58;;;;;;;9.68;1.55;;;12.80;99.90;;;;;;5073325;28;20098;-55
2022/06/20 03:31:26;;;;;;;12.43;1.80;;;12.70;99.90;;;;;;5080607;28;20048;-57
2022/06/20 03:33:53;;;;;;;9.35;2.38;;;12.80;99.90;;;;;;5081365;28;20044;-56
2022/06/20 03:36:26;;;;;;;7.78;1.80;;;12.70;99.90;;;;;;5077031;28;20123;-56
2022/06/20 03:38:53;;;;;;;8.48;1.73;;;12.70;99.90;;;;;;5084219;28;20371;-55
2022/06/20 03:41:22;;;;;;;12.25;2.08;;;12.70;99.90;;;;;;5083449;28;20051;-56
2022/06/20 03:44:07;;;;;;;4.28;1.63;;;12.70;99.90;;;;;;5077041;28;20083;-55
2022/06/20 03:46:53;;;;;;;17.23;2.85;;;12.60;99.90;;;;;;5077107;28;20145;-56
2022/06/20 03:49:24;;;;;;;7.03;1.65;;;12.60;99.90;;;;;;5068232;28;20040;-52
2022/06/20 03:51:55;;;;;;;8.02;1.63;;;12.60;99.90;;;;;;5074992;28;20091;-53
2022/06/20 03:54:45;;;;;;;7.13;1.40;;;12.60;99.90;;;;;;5078228;28;20127;-55
2022/06/20 03:57:36;;;;;;;7.90;1.52;;;12.60;99.90;;;;;;5076105;28;20043;-55
2022/06/20 04:00:14;;;;;;;7.88;1.70;;;12.60;99.90;;;;;;5075860;28;20128;-56
2022/06/20 04:03:00;;;;;;;8.35;2.08;;;12.50;99.90;;;;;;5083077;28;20080;-56
2022/06/20 04:05:39;;;;;;;4.82;1.50;;;12.50;99.90;;;;;;5083520;28;20518;-54
2022/06/20 04:08:08;;;;;;;9.60;1.70;;;12.60;99.90;;;;;;5078582;28;20048;-57
2022/06/20 04:13:56;;;;;;;12.65;2.47;;;12.50;99.90;;;;;;5078969;28;20105;-55
2022/06/20 04:16:29;;;;;;;6.30;1.50;;;12.50;99.90;;;;;;5083325;28;20475;-55
2022/06/20 04:19:06;;;;;;;9.35;2.15;;;12.60;99.90;;;;;;5078127;28;20052;-56
2022/06/20 04:21:37;;;;;;;9.32;2.20;;;12.60;99.90;;;;;;5083287;28;20051;-55
2022/06/20 04:24:18;;;;;;;9.95;3.45;;;12.50;99.90;;;;;;5079685;28;20886;-55
2022/06/20 04:27:03;;;;;;;9.05;2.00;;;12.50;99.90;;;;;;5071938;28;20049;-56
2022/06/20 04:29:57;;;;;;;6.65;1.48;;;12.50;99.90;;;;;;5082281;28;20063;-59
2022/06/20 04:32:31;;;;;;;10.38;1.80;;;12.50;99.90;;;;;;5077023;28;20040;-54
2022/06/20 04:35:09;;;;;;;8.60;3.50;;;12.50;99.90;;;;;;5074200;28;20068;-54
2022/06/20 04:38:16;;;;;;;7.55;1.80;;;12.50;99.90;;;;;;5087548;28;20048;-54
2022/06/20 04:40:56;;;;;;;6.32;1.60;;;12.50;99.90;;;;;;5083477;28;20123;-56
2022/06/20 04:43:50;;;;;;;4.70;1.55;;;12.50;99.90;;;;;;5074840;28;20487;-56
2022/06/20 04:46:31;;;;;;;12.07;1.75;;;12.50;99.90;;;;;;5085251;28;20048;-51
2022/06/20 04:49:00;;;;;;;10.88;2.65;;;12.50;99.90;;;;;;5083506;28;20119;-56
2022/06/20 04:51:31;;;;;;;9.57;1.95;;;12.50;99.90;;;;;;5083126;28;20043;-53
2022/06/20 04:53:57;;;;;;;4.10;1.95;;;12.50;99.90;;;;;;5074717;28;20048;-57
2022/06/20 04:56:27;;;;;;;6.53;2.00;;;12.50;99.90;;;;;;5078749;28;20177;-54
2022/06/20 04:58:57;;;;;;;4.43;1.30;;;12.50;99.90;;;;;;5080019;28;20284;-55
2022/06/20 05:01:24;;;;;;;8.52;1.75;;;12.60;99.90;;;;;;5075002;28;20468;-56
2022/06/20 05:03:57;;;;;;;12.30;2.10;;;12.60;99.90;;;;;;5083440;28;20060;-57
2022/06/20 05:06:26;;;;;;;3.55;1.63;;;12.60;99.90;;;;;;5080507;28;20102;-55
2022/06/20 05:08:58;;;;;;;16.52;2.58;;;12.70;99.90;;;;;;5077814;28;20101;-56
2022/06/20 05:11:58;;;;;;;6.68;1.70;;;12.70;99.90;;;;;;5089109;28;20129;-57
2022/06/20 05:14:30;;;;;;;6.55;2.05;;;12.70;99.90;;;;;;5067074;28;20045;-56
2022/06/20 05:16:58;;;;;;;4.55;1.40;;;12.80;99.90;;;;;;5082294;28;20047;-56
2022/06/20 05:19:36;;;;;;;7.22;1.63;;;12.80;99.90;;;;;;5073803;28;20281;-55
2022/06/20 05:22:11;;;;;;;6.40;1.85;;;12.90;99.90;;;;;;5057167;28;20047;-54
2022/06/20 05:24:38;;;;;;;14.30;2.60;;;12.90;99.90;;;;;;5070408;28;20135;-57
2022/06/20 05:27:15;;;;;;;10.43;1.83;;;12.90;99.90;;;;;;5060702;28;20131;-56
2022/06/20 05:29:43;;;;;;;4.72;1.42;;;13.00;99.90;;;;;;5082121;28;20044;-55
2022/06/20 05:32:13;;;;;;;8.48;1.60;;;13.00;99.90;;;;;;5069617;28;20068;-56
2022/06/20 05:34:40;;;;;;;5.85;1.85;;;13.10;99.90;;;;;;5082170;28;20075;-53
2022/06/20 05:37:31;;;;;;;11.85;2.45;;;13.10;99.90;;;;;;5077732;28;20573;-52
2022/06/20 05:40:05;;;;;;;6.97;1.38;;;13.10;99.90;;;;;;5082748;28;20089;-54
2022/06/20 05:42:32;;;;;;;8.85;2.13;;;13.20;99.90;;;;;;5074089;28;20048;-55
2022/06/20 05:44:58;;;;;;;5.10;2.38;;;13.30;99.90;;;;;;5078536;28;20184;-55
2022/06/20 05:47:32;;;;;;;6.72;1.67;;;13.30;99.90;;;;;;5084110;28;20062;-55
2022/06/20 05:50:10;;;;;;;8.30;2.10;;;13.40;99.90;;;;;;5057911;28;20094;-57
2022/06/20 05:52:37;;;;;;;6.45;1.63;;;13.40;99.90;;;;;;5068560;28;20057;-54
2022/06/20 05:55:15;;;;;;;13.00;2.60;;;13.50;99.90;;;;;;5081916;28;20043;-55
2022/06/20 05:57:45;;;;;;;5.30;1.58;;;13.50;99.90;;;;;;5067954;28;20125;-56
2022/06/20 06:00:17;;;;;;;7.32;1.90;;;13.50;99.90;;;;;;5079067;28;20082;-52
2022/06/20 06:03:03;;;;;;;5.93;2.03;;;13.50;99.90;;;;;;5079673;28;20096;-53
2022/06/20 06:05:44;;;;;;;7.82;2.08;;;13.50;99.90;;;;;;5069767;28;20079;-54
2022/06/20 06:08:28;;;;;;;7.35;1.77;;;13.50;99.90;;;;;;5080191;28;20321;-53
2022/06/20 06:11:57;;;;;;;9.13;2.28;;;13.50;99.90;;;;;;5063104;28;20049;-54
2022/06/20 06:14:42;;;;;;;7.25;3.72;;;13.50;99.90;;;;;;5007622;28;20049;-53
2022/06/20 06:17:11;;;;;;;3.92;1.70;;;13.60;99.90;;;;;;5022445;28;20051;-58
2022/06/20 06:20:10;;;;;;;7.80;1.45;;;13.60;99.90;;;;;;5064500;28;20048;-56
2022/06/20 06:22:39;;;;;;;7.20;1.40;;;13.60;99.90;;;;;;5074981;28;20453;-54
2022/06/20 06:25:29;;;;;;;14.60;1.98;;;13.70;99.90;;;;;;5079872;28;20449;-54
2022/06/20 06:28:05;;;;;;;12.35;1.60;;;13.70;99.90;;;;;;5075565;28;20562;-54
2022/06/20 06:30:45;;;;;;;5.90;1.38;;;13.80;99.90;;;;;;5080562;28;20101;-56
2022/06/20 06:33:20;;;;;;;7.72;1.60;;;13.90;99.90;;;;;;5083189;28;20052;-57
2022/06/20 06:36:11;;;;;;;4.82;1.77;;;13.90;99.90;;;;;;5083586;28;20048;-53
2022/06/20 06:39:05;;;;;;;4.72;1.55;;;14.00;99.90;;;;;;5080983;28;20123;-56
2022/06/20 06:41:39;;;;;;;;;;;14.00;99.90;;;;;;5046600;28;20075;-57
2022/06/20 06:44:17;;;;;;;4.60;1.13;;;14.00;99.90;;;;;;5078389;28;19920;-56
2022/06/20 06:46:46;;;;;;;10.23;1.65;;;14.00;99.90;;;;;;5087312;28;20082;-57
2022/06/20 06:49:34;;;;;;;6.85;1.48;;;14.10;99.90;;;;;;5086836;28;20083;-55
2022/06/20 06:52:21;;;;;;;6.20;1.30;;;14.10;99.90;;;;;;5085217;28;20043;-56
2022/06/20 06:54:55;;;;;;;3.33;1.15;;;14.20;99.90;;;;;;5074822;28;20098;-53
2022/06/20 06:57:49;;;;;;;7.15;1.33;;;14.20;99.90;;;;;;5068785;28;20538;-54
2022/06/20 07:00:30;;;;;;;6.97;1.75;;;14.30;99.90;;;;;;5083720;28;20072;-55
2022/06/20 07:03:08;;;;;;;3.58;1.20;;;14.30;99.90;;;;;;5086622;28;20072;-58
2022/06/20 07:05:38;;;;;;;6.43;1.42;;;14.30;99.90;;;;;;5085529;28;20151;-57
2022/06/20 07:08:14;;;;;;;11.45;1.38;;;14.40;99.90;;;;;;5087417;28;20079;-57
2022/06/20 07:11:00;;;;;;;9.27;1.58;;;14.40;99.90;;;;;;5086321;28;20136;-58
2022/06/20 07:13:55;;;;;;;7.88;1.77;;;14.50;99.90;;;;;;5087427;28;20071;-59
2022/06/20 07:16:43;;;;;;;4.82;1.48;;;14.60;99.90;;;;;;5086875;28;20550;-58
2022/06/20 07:19:11;;;;;;;4.00;1.10;;;14.60;99.90;;;;;;5083376;28;20522;-58
2022/06/20 07:21:38;;;;;;;7.53;1.63;;;14.70;99.90;;;;;;5081221;28;20089;-59
2022/06/20 07:24:06;;;;;;;6.95;1.27;;;14.70;99.90;;;;;;5080945;28;20045;-58
2022/06/20 07:26:41;;;;;;;4.85;1.25;;;14.70;99.90;;;;;;5079342;28;20056;-57
2022/06/20 07:29:22;;;;;;;4.85;1.27;;;14.80;99.90;;;;;;5085103;28;20110;-63
2022/06/20 07:31:52;;;;;;;5.22;1.67;;;14.80;99.90;;;;;;5062919;28;20037;-64
2022/06/20 07:34:24;;;;;;;2.83;1.30;;;14.90;99.90;;;;;;5075332;28;20075;-59
2022/06/20 07:36:55;;;;;;;8.43;2.33;;;14.90;99.90;;;;;;5081972;28;20125;-59
2022/06/20 07:39:28;;;;;;;9.68;1.75;;;14.90;99.90;;;;;;5071611;28;20052;-59
2022/06/20 07:41:58;;;;;;;7.25;1.30;;;14.90;99.90;;;;;;5079669;28;20048;-59
2022/06/20 07:44:34;;;;;;;5.88;1.20;;;15.00;99.90;;;;;;5080859;28;20113;-58
2022/06/20 07:47:10;;;;;;;2.40;1.20;;;15.00;99.90;;;;;;5062472;28;20040;-59
2022/06/20 07:49:47;;;;;;;5.95;1.40;;;15.10;99.90;;;;;;5073564;28;20523;-57
2022/06/20 07:52:19;;;;;;;6.22;1.20;;;15.10;99.90;;;;;;5062137;28;20072;-59
2022/06/20 07:54:48;;;;;;;6.10;1.23;;;15.10;99.90;;;;;;5081282;28;20086;-58
2022/06/20 07:57:20;;;;;;;3.72;1.42;;;15.20;99.90;;;;;;5077041;28;20043;-60
2022/06/20 08:00:19;;;;;;;6.63;1.08;;;15.20;99.90;;;;;;5083782;28;20052;-59
2022/06/20 08:02:58;;;;;;;7.00;1.63;;;15.30;99.90;;;;;;5071272;28;20058;-60
2022/06/20 08:05:35;;;;;;;4.53;1.33;;;15.30;99.90;;;;;;5071928;28;20243;-60
2022/06/20 08:08:29;;;;;;;3.22;1.00;;;15.30;99.90;;;;;;5077103;28;20127;-60
2022/06/20 08:11:42;;;;;;;6.88;2.05;;;15.40;97.90;;;;;;5086783;28;20091;-60
2022/06/20 08:14:14;;;;;;;4.53;1.48;;;15.50;99.70;;;;;;5083486;28;20044;-58
2022/06/20 08:16:41;;;;;;;4.10;1.00;;;15.50;99.90;;;;;;5079625;28;20048;-59
2022/06/20 08:19:08;;;;;;;8.40;1.70;;;15.60;99.90;;;;;;5086697;28;20040;-60
2022/06/20 08:21:37;;;;;;;3.15;1.27;;;15.70;99.90;;;;;;5078435;28;20044;-61
2022/06/20 08:24:19;;;;;;;3.60;1.70;;;15.70;99.90;;;;;;5078495;28;20075;-59
2022/06/20 08:27:21;;;;;;;3.28;1.05;;;15.70;99.90;;;;;;5067528;28;20525;-59
2022/06/20 08:29:55;;;;;;;7.70;2.80;;;15.80;99.70;;;;;;5069103;28;20101;-59
2022/06/20 08:32:31;;;;;;;23.58;2.58;;;15.90;99.90;;;;;;5076597;28;20084;-60
2022/06/20 08:35:06;;;;;;;6.70;1.40;;;15.90;99.90;;;;;;5083555;28;20400;-59
2022/06/20 08:37:44;;;;;;;8.43;2.92;;;15.90;99.90;;;;;;5077438;28;20147;-59
2022/06/20 08:40:38;;;;;;;4.45;1.48;;;15.90;99.90;;;;;;5082734;28;20048;-59
2022/06/20 08:43:34;;;;;;;6.32;1.17;;;15.90;99.90;;;;;;5082005;28;20517;-59
2022/06/20 08:46:23;;;;;;;2.17;0.90;;;16.00;99.90;;;;;;5074806;28;20040;-59
2022/06/20 08:49:24;;;;;;;2.90;1.08;;;16.00;99.10;;;;;;5075052;28;20044;-58
2022/06/20 08:52:21;;;;;;;5.03;1.75;;;16.10;98.00;;;;;;5051846;28;20151;-59
2022/06/20 08:55:12;;;;;;;7.63;1.50;;;16.30;98.60;;;;;;5075177;28;20127;-59
2022/06/20 08:57:57;;;;;;;8.80;1.73;;;16.30;99.60;;;;;;5086493;28;20048;-60
2022/06/20 09:00:41;;;;;;;4.93;1.35;;;16.30;98.50;;;;;;5083494;28;20089;-60
2022/06/20 09:03:49;;;;;;;6.13;1.35;;;16.40;99.50;;;;;;5088457;28;20075;-60
2022/06/20 09:06:35;;;;;;;5.60;1.98;;;16.50;96.50;;;;;;5073179;28;20580;-59
2022/06/20 09:09:06;;;;;;;10.20;1.80;;;16.50;96.60;;;;;;5093794;28;20084;-58
2022/06/20 09:11:47;;;;;;;6.47;1.13;;;16.60;99.00;;;;;;5081466;28;20669;-58
2022/06/20 09:14:42;;;;;;;11.98;2.03;;;16.60;98.30;;;;;;5081689;28;20078;-60
2022/06/20 09:17:12;;;;;;;7.32;2.17;;;16.70;97.50;;;;;;5071216;28;20496;-59
2022/06/20 09:20:00;;;;;;;5.05;2.47;;;16.80;98.60;;;;;;5083823;28;20051;-58
2022/06/20 09:22:54;;;;;;;4.88;1.35;;;16.90;96.20;;;;;;5076755;28;20045;-60
2022/06/20 09:25:40;;;;;;;6.88;1.92;;;16.90;96.30;;;;;;5069075;28;20048;-60
2022/06/20 09:28:40;;;;;;;6.35;1.58;;;16.90;96.30;;;;;;5070823;28;20390;-59
2022/06/20 09:31:32;;;;;;;6.45;1.50;;;17.10;96.70;;;;;;5074076;28;20052;-60
2022/06/20 09:34:32;;;;;;;5.68;2.35;;;17.30;97.00;;;;;;5075560;28;20135;-60
2022/06/20 09:37:41;;;;;;;8.40;2.35;;;17.40;94.00;;;;;;5083448;28;20089;-59
2022/06/20 09:40:56;;;;;;;11.88;2.28;;;17.40;94.00;;;;;;5082839;28;20470;-59
2022/06/20 09:43:55;;;;;;;21.00;3.63;;;17.50;94.20;;;;;;5077904;28;20076;-60
2022/06/20 09:46:31;;;;;;;8.00;1.67;;;17.50;94.90;;;;;;5071171;28;20098;-60
2022/06/20 09:49:00;;;;;;;8.57;2.50;;;17.50;95.90;;;;;;5077022;28;20121;-59
2022/06/20 09:51:53;;;;;;;9.32;1.98;;;17.60;96.70;;;;;;5076509;28;20560;-57
2022/06/20 09:54:43;;;;;;;2.63;1.33;;;17.70;95.60;;;;;;5085100;28;20048;-59
2022/06/20 09:57:23;;;;;;;6.95;1.70;;;17.80;94.90;;;;;;5080761;28;20048;-59
2022/06/20 10:00:01;;;;;;;9.27;2.38;;;17.90;95.30;;;;;;5077536;28;20041;-60
2022/06/20 10:02:47;;;;;;;8.77;2.80;;;18.10;96.20;;;;;;5083885;28;20050;-59
2022/06/20 10:05:33;;;;;;;5.80;1.55;;;18.30;94.10;;;;;;5076395;28;20060;-58
2022/06/20 10:08:13;;;;;;;5.30;1.70;;;18.40;95.60;;;;;;5083246;28;20044;-61
2022/06/20 10:10:50;;;;;;;8.85;1.60;;;18.30;93.50;;;;;;5084381;28;20430;-60
2022/06/20 10:13:23;;;;;;;6.68;2.60;;;18.30;94.80;;;;;;5077790;28;20589;-59
2022/06/20 10:15:51;;;;;;;9.73;1.50;;;18.70;94.60;;;;;;5083059;28;20862;-59
2022/06/20 10:18:36;;;;;;;8.52;2.33;;;19.10;94.30;;;;;;5088209;28;20036;-61
2022/06/20 10:21:07;;;;;;;8.43;1.60;;;19.60;91.70;;;;;;5085855;28;20044;-60
2022/06/20 10:24:06;;;;;;;6.57;1.63;;;19.90;92.50;;;;;;5077435;28;20048;-59
2022/06/20 10:26:46;;;;;;;7.15;1.73;;;19.90;90.50;;;;;;5079568;28;20094;-59
2022/06/20 10:29:33;;;;;;;9.43;2.58;;;20.00;91.30;;;;;;5073036;28;20129;-60
2022/06/20 10:32:11;;;;;;;7.63;1.83;;;20.20;90.50;;;;;;5086697;28;20064;-60
2022/06/20 10:34:56;;;;;;;9.05;2.40;;;20.50;90.10;;;;;;5084026;28;20105;-56
2022/06/20 10:37:33;;;;;;;5.80;1.77;;;20.80;87.70;;;;;;5082484;28;20044;-58
2022/06/20 10:40:16;;;;;;;4.07;1.58;;;20.80;90.60;;;;;;5077197;28;20058;-58
2022/06/20 10:43:05;;;;;;;10.10;2.73;;;20.50;88.60;;;;;;5077371;28;20138;-59
2022/06/20 10:45:33;;;;;;;6.07;2.25;;;20.20;90.60;;;;;;5086316;28;20075;-59
2022/06/20 10:48:18;;;;;;;8.98;2.25;;;19.90;90.50;;;;;;5085533;28;20041;-59
2022/06/20 10:50:47;;;;;;;5.80;1.55;;;19.60;88.10;;;;;;5080183;28;20094;-59
2022/06/20 10:53:42;;;;;;;5.20;1.95;;;19.80;90.00;;;;;;5084753;28;20117;-59
2022/06/20 10:56:23;;;;;;;4.85;1.50;;;20.20;86.50;;;;;;5088055;28;20575;-59
2022/06/20 10:59:10;;;;;;;6.53;1.90;;;20.40;88.80;;;;;;5085912;28;20097;-59
2022/06/20 11:01:58;;;;;;;7.40;1.80;;;20.40;85.70;;;;;;5090096;28;20048;-59
2022/06/20 11:04:57;;;;;;;5.88;1.92;;;20.30;84.20;;;;;;5074835;28;20078;-58
2022/06/20 11:07:32;;;;;;;4.05;2.03;;;20.30;84.60;;;;;;5081738;28;20048;-59
2022/06/20 11:10:02;;;;;;;10.43;2.03;;;20.10;86.40;;;;;;5089047;28;20411;-60
2022/06/20 11:12:53;;;;;;;12.32;2.38;;;19.80;87.90;;;;;;5083658;28;20052;-59
2022/06/20 11:15:43;;;;;;;9.20;2.17;;;19.80;87.50;;;;;;5087709;28;20105;-59
2022/06/20 11:18:33;;;;;;;10.15;2.70;;;19.60;84.00;;;;;;5080007;28;20052;-59
2022/06/20 11:21:15;;;;;;;4.55;1.52;;;19.60;84.50;;;;;;5082555;28;20068;-60
2022/06/20 11:24:20;;;;;;;5.65;2.17;;;19.60;86.40;;;;;;5084271;28;20128;-60
2022/06/20 11:27:08;;;;;;;6.70;1.88;;;19.50;83.50;;;;;;5083271;28;20256;-59
2022/06/20 11:29:56;;;;;;;5.55;2.22;;;19.30;87.20;;;;;;5079491;28;20151;-60
2022/06/20 11:32:45;;;;;;;7.22;2.10;;;19.40;84.90;;;;;;5085204;28;20128;-60
2022/06/20 11:35:35;;;;;;;6.57;1.95;;;19.30;84.30;;;;;;5083120;28;20127;-60
2022/06/20 11:38:17;;;;;;;8.68;1.95;;;19.20;85.30;;;;;;5088263;28;20048;-60
2022/06/20 11:40:43;;;;;;;4.78;1.83;;;19.20;86.40;;;;;;5070387;28;20409;-60
2022/06/20 11:43:22;;;;;;;9.02;2.13;;;19.10;87.50;;;;;;5081442;28;20037;-60
2022/06/20 11:45:59;;;;;;;12.15;2.75;;;19.20;86.00;;;;;;5075171;28;20534;-59
2022/06/20 11:48:49;;;;;;;10.80;3.03;;;19.30;86.30;;;;;;5078524;28;20085;-60
2022/06/20 11:51:28;;;;;;;9.88;1.70;;;19.50;84.30;;;;;;5082699;28;20041;-60
2022/06/20 11:53:57;;;;;;;5.80;2.05;;;19.60;85.50;;;;;;5080025;28;20182;-60
2022/06/20 11:56:52;;;;;;;10.50;2.00;;;19.70;86.40;;;;;;5082914;28;20040;-60
2022/06/20 11:59:22;;;;;;;3.55;1.48;;;19.80;83.20;;;;;;5074814;28;20454;-61
2022/06/20 12:02:15;;;;;;;6.57;2.05;;;19.80;85.70;;;;;;5085621;28;20044;-59
2022/06/20 12:04:51;;;;;;;8.32;2.08;;;19.90;84.60;;;;;;5059731;28;20064;-58
2022/06/20 12:07:50;;;;;;;11.45;2.08;;;20.10;86.10;;;;;;5074105;28;20162;-60
2022/06/20 12:10:22;;;;;;;8.75;1.80;;;20.30;84.40;;;;;;5083343;28;20043;-62
2022/06/20 12:13:05;;;;;;;8.50;2.03;;;20.40;84.20;;;;;;5078988;28;20101;-62
2022/06/20 12:15:48;;;;;;;6.82;1.83;;;20.30;82.20;;;;;;5074794;28;20127;-60
2022/06/20 12:18:37;;;;;;;16.77;3.25;;;20.20;81.70;;;;;;5078356;28;20241;-60
2022/06/20 12:23:58;;;;;;;6.95;2.20;;;20.40;83.40;;;;;;5073218;28;20044;-60
2022/06/20 12:26:32;;;;;;;10.82;2.00;;;20.30;83.70;;;;;;5078177;28;20371;-60
2022/06/20 12:29:01;;;;;;;10.02;2.15;;;20.40;80.90;;;;;;5070024;28;20087;-59
2022/06/20 12:31:36;;;;;;;3.88;2.40;;;20.40;82.40;;;;;;5062039;28;20307;-60
2022/06/20 12:34:16;;;;;;;7.47;2.13;;;20.50;80.70;;;;;;5079994;28;20193;-61
2022/06/20 12:37:15;;;;;;;12.98;2.83;;;20.40;81.60;;;;;;5076725;28;20076;-60
2022/06/20 12:39:46;;;;;;;10.70;2.50;;;20.50;78.70;;;;;;5076171;28;20072;-60
2022/06/20 12:42:41;;;;;;;6.10;1.70;;;20.50;80.30;;;;;;5067267;28;20356;-60
2022/06/20 12:45:45;;;;;;;6.70;2.08;;;20.60;78.40;;;;;;5086539;28;20401;-60
2022/06/20 12:48:41;;;;;;;8.02;2.47;;;20.70;79.60;;;;;;5073327;28;20124;-60
2022/06/20 12:51:26;;;;;;;11.10;2.28;;;20.70;81.00;;;;;;5079977;28;20036;-60
2022/06/20 12:54:38;;;;;;;9.52;2.47;;;20.80;81.40;;;;;;5072923;28;20123;-61
2022/06/20 12:57:29;;;;;;;11.55;2.58;;;20.80;79.20;;;;;;5072739;28;20283;-59
2022/06/20 13:00:02;;;;;;;7.30;2.00;;;20.80;79.30;;;;;;5065614;28;20098;-59
2022/06/20 13:02:47;;;;;;;7.57;2.30;;;20.80;78.40;;;;;;5076840;28;20090;-60
2022/06/20 13:05:48;;;;;;;15.25;2.50;;;20.90;79.00;;;;;;5076210;28;20052;-61
2022/06/20 13:08:42;;;;;;;6.07;2.00;;;20.90;76.90;;;;;;5075959;28;20106;-59
2022/06/20 13:11:28;;;;;;;11.50;2.60;;;21.00;76.30;;;;;;5070473;28;20079;-60
2022/06/20 13:14:19;;;;;;;8.00;2.28;;;21.00;80.70;;;;;;5087041;28;20127;-59
2022/06/20 13:17:08;;;;;;;6.75;1.88;;;21.20;78.40;;;;;;5073611;28;20048;-60
2022/06/20 13:19:48;;;;;;;13.60;2.80;;;21.40;79.40;;;;;;5072429;28;20075;-58
2022/06/20 13:22:35;;;;;;;7.55;2.00;;;21.50;76.70;;;;;;5080126;28;20498;-58
2022/06/20 13:25:26;;;;;;;14.25;2.10;;;21.50;75.90;;;;;;5074745;28;20046;-60
2022/06/20 13:28:12;;;;;;;8.60;2.78;;;21.50;78.10;;;;;;5056894;28;20048;-60
2022/06/20 13:31:09;;;;;;;11.25;1.90;;;21.50;76.40;;;;;;5076325;28;20499;-60
2022/06/20 13:34:00;;;;;;;9.13;2.58;;;21.50;75.50;;;;;;5072230;28;20079;-60
2022/06/20 13:36:31;;;;;;;15.65;2.97;;;21.50;76.90;;;;;;5075870;28;20090;-60
2022/06/20 13:39:18;;;;;;;11.90;3.25;;;21.60;77.50;;;;;;5082048;28;20474;-59
2022/06/20 13:42:03;;;;;;;14.48;2.38;;;21.60;77.00;;;;;;5072668;28;20487;-60
2022/06/20 13:44:40;;;;;;;6.10;2.22;;;21.60;77.30;;;;;;5073839;28;20104;-59
2022/06/20 13:47:26;;;;;;;8.07;2.00;;;21.80;75.90;;;;;;5101671;28;20074;-60
2022/06/20 13:50:16;;;;;;;7.57;2.40;;;21.80;75.90;;;;;;5072568;28;20275;-60
2022/06/20 13:52:58;;;;;;;11.52;2.10;;;22.00;76.20;;;;;;5076017;28;20202;-60
2022/06/20 13:55:47;;;;;;;8.45;2.92;;;22.30;75.30;;;;;;5079500;28;20055;-60
2022/06/20 13:58:23;;;;;;;7.43;2.15;;;22.40;74.80;;;;;;5064535;28;20048;-61